This is the latest recevied weather packets stored in our database for station/object W4SMH. If no packets are shown the sender has not sent any weather packets the latest 10 day(s).
| Time | Temp. | Humidity | Pressure | Rain* | Wind** | Luminosity | Snow |
|---|---|---|---|---|---|---|---|
| 1777655760 | 8.33° C | 62% | 1015.3 hPa | 0 mm | - | 195 W/m² | - |
| 1777655405 | 8.33° C | 59% | 1015.3 hPa | 0 mm | - | 153 W/m² | - |
| 1777655180 | 8.33° C | 60% | 1015.2 hPa | 0 mm | - | 134 W/m² | - |
| 1777654970 | 8.33° C | 58% | 1015.3 hPa | 0 mm | - | 134 W/m² | - |
| 1777654949 | 7.22° C | 85% | 1013.3 hPa | 0 mm | - | 121 W/m² | - |
| 1777654928 | 8.33° C | 57% | 1015.2 hPa | 0 mm | - | 139 W/m² | - |
| 1777654561 | 8.33° C | 61% | 1015.1 hPa | 0 mm | - | 338 W/m² | - |
| 1777653099 | 7.78° C | 62% | 1015.2 hPa | 0 mm | - | 258 W/m² | - |
| 1777652880 | 7.78° C | 62% | 1015.2 hPa | 0 mm | - | 223 W/m² | - |
| 1777652848 | 7.78° C | 62% | 1015.2 hPa | 0 mm | - | 213 W/m² | - |
| 1777652505 | 8.33° C | 60% | 1015.2 hPa | 0 mm | - | 230 W/m² | - |
| 1777652463 | 8.33° C | 60% | 1015.2 hPa | 0 mm | - | 213 W/m² | - |
| 1777652372 | 8.33° C | 60% | 1015.2 hPa | 0 mm | - | 162 W/m² | - |
| 1777652313 | 8.33° C | 60% | 1015.2 hPa | 0 mm | - | 156 W/m² | - |
| 1777652158 | 8.89° C | 60% | 1015 hPa | 0 mm | - | 165 W/m² | - |
| 1777650513 | 8.89° C | 59% | 1015 hPa | 0 mm | - | 1204 W/m² | - |
| 1777650043 | 8.89° C | 63% | 1015 hPa | 0 mm | - | 311 W/m² | - |
| 1777649620 | 9.44° C | 60% | 1015 hPa | 0 mm | - | 304 W/m² | - |
| 1777649467 | 9.44° C | 61% | 1015 hPa | 0 mm | - | 951 W/m² | - |
| 1777648815 | 8.89° C | 65% | 1014.9 hPa | 0 mm | - | 230 W/m² | - |
| 1777648760 | 8.89° C | 63% | 1014.9 hPa | 0 mm | - | 865 W/m² | - |
| 1777648736 | 8.89° C | 65% | 1015 hPa | 0 mm | - | 838 W/m² | - |
| 1777648461 | 8.89° C | 65% | 1015 hPa | 0 mm | - | 773 W/m² | - |
| 1777647637 | 7.78° C | 68% | 1015 hPa | 0 mm | - | 824 W/m² | - |
| 1777647385 | 7.78° C | 70% | 1015.1 hPa | 0 mm | - | 831 W/m² | - |
* Rain latest hour (hover to see other rain measurements)
** Current wind speed in m/s (hover to see current wind gust speed)